sensor_id;sensor_type;location;lat;lon;timestamp;P1;durP1;ratioP1;P2;durP2;ratioP2
20865;SDS011;10593;48.398;10.698;2023-04-30T00:01:38;2.00;;;1.90;;
20865;SDS011;10593;48.398;10.698;2023-04-30T00:04:04;2.37;;;2.17;;
20865;SDS011;10593;48.398;10.698;2023-04-30T00:06:30;2.07;;;1.97;;
20865;SDS011;10593;48.398;10.698;2023-04-30T00:08:56;2.00;;;1.90;;
20865;SDS011;10593;48.398;10.698;2023-04-30T00:11:22;1.83;;;1.73;;
20865;SDS011;10593;48.398;10.698;2023-04-30T00:13:49;2.30;;;2.10;;
20865;SDS011;10593;48.398;10.698;2023-04-30T00:16:16;2.00;;;1.90;;
20865;SDS011;10593;48.398;10.698;2023-04-30T00:18:42;2.30;;;2.20;;
20865;SDS011;10593;48.398;10.698;2023-04-30T00:21:08;2.33;;;2.07;;
20865;SDS011;10593;48.398;10.698;2023-04-30T00:23:34;2.80;;;2.17;;
20865;SDS011;10593;48.398;10.698;2023-04-30T00:25:59;3.27;;;2.30;;
20865;SDS011;10593;48.398;10.698;2023-04-30T00:28:25;2.00;;;1.90;;
20865;SDS011;10593;48.398;10.698;2023-04-30T00:30:51;2.00;;;1.80;;
20865;SDS011;10593;48.398;10.698;2023-04-30T00:33:17;2.30;;;2.10;;
20865;SDS011;10593;48.398;10.698;2023-04-30T00:35:43;2.50;;;2.00;;
20865;SDS011;10593;48.398;10.698;2023-04-30T00:38:09;2.20;;;2.10;;
20865;SDS011;10593;48.398;10.698;2023-04-30T00:40:36;2.20;;;1.80;;
20865;SDS011;10593;48.398;10.698;2023-04-30T00:43:05;2.03;;;1.93;;
20865;SDS011;10593;48.398;10.698;2023-04-30T00:45:31;2.30;;;2.20;;
20865;SDS011;10593;48.398;10.698;2023-04-30T00:47:56;2.40;;;2.20;;
20865;SDS011;10593;48.398;10.698;2023-04-30T00:50:22;2.30;;;2.10;;
20865;SDS011;10593;48.398;10.698;2023-04-30T00:52:48;2.60;;;2.40;;
20865;SDS011;10593;48.398;10.698;2023-04-30T00:55:14;2.30;;;2.20;;
20865;SDS011;10593;48.398;10.698;2023-04-30T00:57:41;2.67;;;2.20;;
20865;SDS011;10593;48.398;10.698;2023-04-30T01:00:07;2.00;;;1.90;;
20865;SDS011;10593;48.398;10.698;2023-04-30T01:02:35;2.50;;;2.40;;
20865;SDS011;10593;48.398;10.698;2023-04-30T01:05:02;2.00;;;1.90;;
20865;SDS011;10593;48.398;10.698;2023-04-30T01:07:29;2.10;;;2.00;;
20865;SDS011;10593;48.398;10.698;2023-04-30T01:09:56;2.43;;;2.30;;
20865;SDS011;10593;48.398;10.698;2023-04-30T01:20:54;2.40;;;2.30;;
20865;SDS011;10593;48.398;10.698;2023-04-30T01:23:53;2.93;;;2.57;;
20865;SDS011;10593;48.398;10.698;2023-04-30T01:29:20;2.20;;;2.10;;
20865;SDS011;10593;48.398;10.698;2023-04-30T01:31:48;2.27;;;2.17;;
20865;SDS011;10593;48.398;10.698;2023-04-30T01:34:14;2.43;;;2.23;;
20865;SDS011;10593;48.398;10.698;2023-04-30T01:39:56;2.77;;;2.57;;
20865;SDS011;10593;48.398;10.698;2023-04-30T01:42:51;2.70;;;2.50;;
20865;SDS011;10593;48.398;10.698;2023-04-30T01:45:56;2.57;;;2.37;;
20865;SDS011;10593;48.398;10.698;2023-04-30T01:54:20;2.93;;;2.73;;
20865;SDS011;10593;48.398;10.698;2023-04-30T01:57:03;2.60;;;2.43;;
20865;SDS011;10593;48.398;10.698;2023-04-30T01:59:32;2.73;;;2.53;;
20865;SDS011;10593;48.398;10.698;2023-04-30T02:02:02;2.67;;;2.50;;
20865;SDS011;10593;48.398;10.698;2023-04-30T02:04:28;2.77;;;2.57;;
20865;SDS011;10593;48.398;10.698;2023-04-30T02:06:53;2.83;;;2.63;;
20865;SDS011;10593;48.398;10.698;2023-04-30T02:09:19;2.70;;;2.50;;
20865;SDS011;10593;48.398;10.698;2023-04-30T02:11:48;2.50;;;2.30;;
20865;SDS011;10593;48.398;10.698;2023-04-30T02:14:13;2.37;;;2.27;;
20865;SDS011;10593;48.398;10.698;2023-04-30T02:16:39;2.60;;;2.47;;
20865;SDS011;10593;48.398;10.698;2023-04-30T02:19:05;2.80;;;2.60;;
20865;SDS011;10593;48.398;10.698;2023-04-30T02:21:31;2.60;;;2.50;;
20865;SDS011;10593;48.398;10.698;2023-04-30T02:23:56;2.67;;;2.57;;
20865;SDS011;10593;48.398;10.698;2023-04-30T02:26:22;2.73;;;2.53;;
20865;SDS011;10593;48.398;10.698;2023-04-30T02:28:48;3.27;;;3.00;;
20865;SDS011;10593;48.398;10.698;2023-04-30T02:31:13;2.87;;;2.67;;
20865;SDS011;10593;48.398;10.698;2023-04-30T02:33:39;2.93;;;2.63;;
20865;SDS011;10593;48.398;10.698;2023-04-30T02:36:05;2.47;;;2.27;;
20865;SDS011;10593;48.398;10.698;2023-04-30T02:38:30;2.87;;;2.50;;
20865;SDS011;10593;48.398;10.698;2023-04-30T02:40:56;2.80;;;2.60;;
20865;SDS011;10593;48.398;10.698;2023-04-30T02:43:22;2.83;;;2.63;;
20865;SDS011;10593;48.398;10.698;2023-04-30T02:45:47;2.80;;;2.60;;
20865;SDS011;10593;48.398;10.698;2023-04-30T02:48:13;2.70;;;2.50;;
20865;SDS011;10593;48.398;10.698;2023-04-30T02:50:39;4.53;;;2.80;;
20865;SDS011;10593;48.398;10.698;2023-04-30T02:53:05;2.83;;;2.63;;
20865;SDS011;10593;48.398;10.698;2023-04-30T02:55:30;3.10;;;2.80;;
20865;SDS011;10593;48.398;10.698;2023-04-30T02:57:56;2.93;;;2.73;;
20865;SDS011;10593;48.398;10.698;2023-04-30T03:00:22;2.90;;;2.70;;
20865;SDS011;10593;48.398;10.698;2023-04-30T03:02:48;3.00;;;2.70;;
20865;SDS011;10593;48.398;10.698;2023-04-30T03:05:13;2.97;;;2.77;;
20865;SDS011;10593;48.398;10.698;2023-04-30T03:07:42;3.13;;;2.93;;
20865;SDS011;10593;48.398;10.698;2023-04-30T03:10:07;2.80;;;2.60;;
20865;SDS011;10593;48.398;10.698;2023-04-30T03:12:34;3.37;;;3.17;;
20865;SDS011;10593;48.398;10.698;2023-04-30T03:15:00;3.50;;;3.27;;
20865;SDS011;10593;48.398;10.698;2023-04-30T03:17:25;3.40;;;2.70;;
20865;SDS011;10593;48.398;10.698;2023-04-30T03:19:51;2.63;;;2.47;;
20865;SDS011;10593;48.398;10.698;2023-04-30T03:22:17;2.80;;;2.60;;
20865;SDS011;10593;48.398;10.698;2023-04-30T03:24:43;4.60;;;2.93;;
20865;SDS011;10593;48.398;10.698;2023-04-30T03:27:10;3.10;;;2.90;;
20865;SDS011;10593;48.398;10.698;2023-04-30T03:29:35;3.20;;;3.00;;
20865;SDS011;10593;48.398;10.698;2023-04-30T03:32:01;3.53;;;2.93;;
20865;SDS011;10593;48.398;10.698;2023-04-30T03:34:27;2.97;;;2.77;;
20865;SDS011;10593;48.398;10.698;2023-04-30T03:36:52;2.77;;;2.57;;
20865;SDS011;10593;48.398;10.698;2023-04-30T03:39:18;3.37;;;3.17;;
20865;SDS011;10593;48.398;10.698;2023-04-30T03:41:44;3.10;;;2.90;;
20865;SDS011;10593;48.398;10.698;2023-04-30T03:44:09;3.17;;;2.90;;
20865;SDS011;10593;48.398;10.698;2023-04-30T03:46:40;3.57;;;3.27;;
20865;SDS011;10593;48.398;10.698;2023-04-30T03:49:09;3.13;;;2.90;;
20865;SDS011;10593;48.398;10.698;2023-04-30T03:51:35;3.33;;;3.13;;
20865;SDS011;10593;48.398;10.698;2023-04-30T03:54:05;2.90;;;2.70;;
20865;SDS011;10593;48.398;10.698;2023-04-30T03:56:35;3.17;;;2.97;;
20865;SDS011;10593;48.398;10.698;2023-04-30T03:59:01;3.33;;;3.00;;
20865;SDS011;10593;48.398;10.698;2023-04-30T04:01:28;3.00;;;2.80;;
20865;SDS011;10593;48.398;10.698;2023-04-30T04:03:54;3.10;;;2.90;;
20865;SDS011;10593;48.398;10.698;2023-04-30T04:06:19;3.10;;;2.90;;
20865;SDS011;10593;48.398;10.698;2023-04-30T04:08:45;3.50;;;3.20;;
20865;SDS011;10593;48.398;10.698;2023-04-30T04:11:11;2.83;;;2.63;;
20865;SDS011;10593;48.398;10.698;2023-04-30T04:13:37;3.13;;;2.83;;
20865;SDS011;10593;48.398;10.698;2023-04-30T04:16:02;3.30;;;3.10;;
20865;SDS011;10593;48.398;10.698;2023-04-30T04:18:28;3.10;;;2.90;;
20865;SDS011;10593;48.398;10.698;2023-04-30T04:20:54;3.93;;;3.53;;
20865;SDS011;10593;48.398;10.698;2023-04-30T04:23:20;3.77;;;3.47;;
20865;SDS011;10593;48.398;10.698;2023-04-30T04:25:47;3.67;;;3.37;;
20865;SDS011;10593;48.398;10.698;2023-04-30T04:28:16;3.23;;;2.93;;
20865;SDS011;10593;48.398;10.698;2023-04-30T04:30:41;3.40;;;3.20;;
20865;SDS011;10593;48.398;10.698;2023-04-30T04:33:07;3.53;;;3.27;;
20865;SDS011;10593;48.398;10.698;2023-04-30T04:35:34;4.00;;;3.60;;
20865;SDS011;10593;48.398;10.698;2023-04-30T04:38:00;3.77;;;3.47;;
20865;SDS011;10593;48.398;10.698;2023-04-30T04:40:26;3.20;;;3.00;;
20865;SDS011;10593;48.398;10.698;2023-04-30T04:42:52;4.07;;;3.77;;
20865;SDS011;10593;48.398;10.698;2023-04-30T04:45:19;3.73;;;3.43;;
20865;SDS011;10593;48.398;10.698;2023-04-30T04:47:45;3.80;;;3.50;;
20865;SDS011;10593;48.398;10.698;2023-04-30T04:50:11;3.60;;;3.30;;
20865;SDS011;10593;48.398;10.698;2023-04-30T04:52:38;3.87;;;3.57;;
20865;SDS011;10593;48.398;10.698;2023-04-30T04:55:04;3.70;;;3.40;;
20865;SDS011;10593;48.398;10.698;2023-04-30T04:57:31;3.77;;;3.47;;
20865;SDS011;10593;48.398;10.698;2023-04-30T04:59:56;4.23;;;3.93;;
20865;SDS011;10593;48.398;10.698;2023-04-30T05:02:22;4.13;;;3.70;;
20865;SDS011;10593;48.398;10.698;2023-04-30T05:04:48;4.07;;;3.70;;
20865;SDS011;10593;48.398;10.698;2023-04-30T05:07:17;3.97;;;3.70;;
20865;SDS011;10593;48.398;10.698;2023-04-30T05:09:43;3.80;;;3.50;;
20865;SDS011;10593;48.398;10.698;2023-04-30T05:12:11;4.20;;;3.90;;
20865;SDS011;10593;48.398;10.698;2023-04-30T05:14:37;4.23;;;3.93;;
20865;SDS011;10593;48.398;10.698;2023-04-30T05:17:03;5.03;;;4.53;;
20865;SDS011;10593;48.398;10.698;2023-04-30T05:19:29;4.77;;;4.37;;
20865;SDS011;10593;48.398;10.698;2023-04-30T05:21:56;4.87;;;4.47;;
20865;SDS011;10593;48.398;10.698;2023-04-30T05:24:21;4.33;;;4.03;;
20865;SDS011;10593;48.398;10.698;2023-04-30T05:26:47;4.60;;;4.30;;
20865;SDS011;10593;48.398;10.698;2023-04-30T05:29:13;4.73;;;4.43;;
20865;SDS011;10593;48.398;10.698;2023-04-30T05:31:39;4.93;;;4.50;;
20865;SDS011;10593;48.398;10.698;2023-04-30T05:34:05;4.60;;;4.17;;
20865;SDS011;10593;48.398;10.698;2023-04-30T05:36:31;4.80;;;4.40;;
20865;SDS011;10593;48.398;10.698;2023-04-30T05:38:57;4.63;;;4.23;;
20865;SDS011;10593;48.398;10.698;2023-04-30T05:41:22;5.30;;;4.90;;
20865;SDS011;10593;48.398;10.698;2023-04-30T05:43:48;5.50;;;5.00;;
20865;SDS011;10593;48.398;10.698;2023-04-30T05:46:14;5.23;;;4.83;;
20865;SDS011;10593;48.398;10.698;2023-04-30T05:48:39;5.33;;;4.60;;
20865;SDS011;10593;48.398;10.698;2023-04-30T05:51:05;6.00;;;5.50;;
20865;SDS011;10593;48.398;10.698;2023-04-30T05:53:31;4.67;;;4.37;;
20865;SDS011;10593;48.398;10.698;2023-04-30T05:55:57;5.33;;;4.87;;
20865;SDS011;10593;48.398;10.698;2023-04-30T05:58:22;5.30;;;4.90;;
20865;SDS011;10593;48.398;10.698;2023-04-30T06:00:49;5.17;;;4.77;;
20865;SDS011;10593;48.398;10.698;2023-04-30T06:03:18;5.33;;;4.93;;
20865;SDS011;10593;48.398;10.698;2023-04-30T06:05:44;5.30;;;4.77;;
20865;SDS011;10593;48.398;10.698;2023-04-30T06:08:11;5.37;;;4.97;;
20865;SDS011;10593;48.398;10.698;2023-04-30T06:10:37;4.97;;;4.57;;
20865;SDS011;10593;48.398;10.698;2023-04-30T06:13:03;5.17;;;4.77;;
20865;SDS011;10593;48.398;10.698;2023-04-30T06:15:30;4.80;;;4.40;;
20865;SDS011;10593;48.398;10.698;2023-04-30T06:17:56;4.87;;;4.37;;
20865;SDS011;10593;48.398;10.698;2023-04-30T06:20:22;5.30;;;4.90;;
20865;SDS011;10593;48.398;10.698;2023-04-30T06:22:48;5.30;;;4.90;;
20865;SDS011;10593;48.398;10.698;2023-04-30T06:25:13;5.00;;;4.60;;
20865;SDS011;10593;48.398;10.698;2023-04-30T06:27:39;4.67;;;4.37;;
20865;SDS011;10593;48.398;10.698;2023-04-30T06:30:05;5.17;;;4.77;;
20865;SDS011;10593;48.398;10.698;2023-04-30T06:32:31;5.50;;;5.00;;
20865;SDS011;10593;48.398;10.698;2023-04-30T06:34:57;4.77;;;4.47;;
20865;SDS011;10593;48.398;10.698;2023-04-30T06:37:23;5.10;;;4.70;;
20865;SDS011;10593;48.398;10.698;2023-04-30T06:39:48;5.43;;;5.03;;
20865;SDS011;10593;48.398;10.698;2023-04-30T06:42:15;5.03;;;4.67;;
20865;SDS011;10593;48.398;10.698;2023-04-30T06:44:41;4.87;;;4.47;;
20865;SDS011;10593;48.398;10.698;2023-04-30T06:47:07;5.27;;;4.87;;
20865;SDS011;10593;48.398;10.698;2023-04-30T06:49:32;5.03;;;4.63;;
20865;SDS011;10593;48.398;10.698;2023-04-30T06:51:58;5.40;;;5.00;;
20865;SDS011;10593;48.398;10.698;2023-04-30T06:54:24;5.03;;;4.53;;
20865;SDS011;10593;48.398;10.698;2023-04-30T06:56:51;5.33;;;4.83;;
20865;SDS011;10593;48.398;10.698;2023-04-30T06:59:17;5.30;;;4.90;;
20865;SDS011;10593;48.398;10.698;2023-04-30T07:01:43;5.40;;;4.90;;
20865;SDS011;10593;48.398;10.698;2023-04-30T07:04:09;5.13;;;4.67;;
20865;SDS011;10593;48.398;10.698;2023-04-30T07:06:34;4.40;;;4.10;;
20865;SDS011;10593;48.398;10.698;2023-04-30T07:09:01;4.43;;;4.13;;
20865;SDS011;10593;48.398;10.698;2023-04-30T07:11:26;4.80;;;4.50;;
20865;SDS011;10593;48.398;10.698;2023-04-30T07:13:52;4.47;;;4.17;;
20865;SDS011;10593;48.398;10.698;2023-04-30T07:16:18;4.77;;;4.47;;
20865;SDS011;10593;48.398;10.698;2023-04-30T07:18:43;5.43;;;4.40;;
20865;SDS011;10593;48.398;10.698;2023-04-30T07:21:12;4.53;;;4.23;;
20865;SDS011;10593;48.398;10.698;2023-04-30T07:23:39;4.33;;;4.03;;
20865;SDS011;10593;48.398;10.698;2023-04-30T07:26:04;5.03;;;4.40;;
20865;SDS011;10593;48.398;10.698;2023-04-30T07:28:30;4.50;;;4.20;;
20865;SDS011;10593;48.398;10.698;2023-04-30T07:30:59;4.83;;;4.43;;
20865;SDS011;10593;48.398;10.698;2023-04-30T07:33:25;5.30;;;4.90;;
20865;SDS011;10593;48.398;10.698;2023-04-30T07:35:51;4.63;;;4.30;;
20865;SDS011;10593;48.398;10.698;2023-04-30T07:38:16;4.87;;;4.50;;
20865;SDS011;10593;48.398;10.698;2023-04-30T07:40:43;4.90;;;4.50;;
20865;SDS011;10593;48.398;10.698;2023-04-30T07:43:08;5.10;;;4.60;;
20865;SDS011;10593;48.398;10.698;2023-04-30T07:45:35;4.90;;;4.50;;
20865;SDS011;10593;48.398;10.698;2023-04-30T07:48:01;4.83;;;4.50;;
20865;SDS011;10593;48.398;10.698;2023-04-30T07:50:27;4.90;;;4.40;;
20865;SDS011;10593;48.398;10.698;2023-04-30T07:52:57;4.77;;;4.47;;
20865;SDS011;10593;48.398;10.698;2023-04-30T07:55:24;4.77;;;4.47;;
20865;SDS011;10593;48.398;10.698;2023-04-30T07:57:50;4.53;;;4.23;;
20865;SDS011;10593;48.398;10.698;2023-04-30T08:00:15;4.50;;;4.20;;
20865;SDS011;10593;48.398;10.698;2023-04-30T08:02:41;4.90;;;4.50;;
20865;SDS011;10593;48.398;10.698;2023-04-30T08:05:12;4.67;;;4.27;;
20865;SDS011;10593;48.398;10.698;2023-04-30T08:07:37;4.63;;;4.33;;
20865;SDS011;10593;48.398;10.698;2023-04-30T08:10:03;4.20;;;3.90;;
20865;SDS011;10593;48.398;10.698;2023-04-30T08:12:30;4.83;;;4.43;;
20865;SDS011;10593;48.398;10.698;2023-04-30T08:14:59;4.80;;;4.40;;
20865;SDS011;10593;48.398;10.698;2023-04-30T08:17:28;5.23;;;4.40;;
20865;SDS011;10593;48.398;10.698;2023-04-30T08:19:55;4.10;;;3.80;;
20865;SDS011;10593;48.398;10.698;2023-04-30T08:22:21;4.10;;;3.90;;
20865;SDS011;10593;48.398;10.698;2023-04-30T08:24:47;3.90;;;3.60;;
20865;SDS011;10593;48.398;10.698;2023-04-30T08:27:14;3.67;;;3.47;;
20865;SDS011;10593;48.398;10.698;2023-04-30T08:29:40;3.97;;;3.67;;
20865;SDS011;10593;48.398;10.698;2023-04-30T08:32:06;3.97;;;3.57;;
20865;SDS011;10593;48.398;10.698;2023-04-30T08:34:32;4.27;;;3.67;;
20865;SDS011;10593;48.398;10.698;2023-04-30T08:36:59;4.23;;;3.93;;
20865;SDS011;10593;48.398;10.698;2023-04-30T08:39:25;3.47;;;3.27;;
20865;SDS011;10593;48.398;10.698;2023-04-30T08:41:54;3.40;;;3.13;;
20865;SDS011;10593;48.398;10.698;2023-04-30T08:44:26;3.40;;;3.20;;
20865;SDS011;10593;48.398;10.698;2023-04-30T08:46:53;3.63;;;3.40;;
20865;SDS011;10593;48.398;10.698;2023-04-30T08:49:20;3.53;;;3.33;;
20865;SDS011;10593;48.398;10.698;2023-04-30T08:51:47;3.43;;;3.23;;
20865;SDS011;10593;48.398;10.698;2023-04-30T08:54:13;3.60;;;3.00;;
20865;SDS011;10593;48.398;10.698;2023-04-30T08:56:42;2.83;;;2.67;;
20865;SDS011;10593;48.398;10.698;2023-04-30T08:59:09;3.03;;;2.83;;
20865;SDS011;10593;48.398;10.698;2023-04-30T09:01:37;3.50;;;2.70;;
20865;SDS011;10593;48.398;10.698;2023-04-30T09:04:03;3.03;;;2.70;;
20865;SDS011;10593;48.398;10.698;2023-04-30T09:06:29;3.00;;;2.80;;
20865;SDS011;10593;48.398;10.698;2023-04-30T09:08:55;4.00;;;3.13;;
20865;SDS011;10593;48.398;10.698;2023-04-30T09:13:56;2.80;;;2.40;;
20865;SDS011;10593;48.398;10.698;2023-04-30T09:16:24;4.00;;;2.60;;
20865;SDS011;10593;48.398;10.698;2023-04-30T09:18:56;3.00;;;2.80;;
20865;SDS011;10593;48.398;10.698;2023-04-30T09:21:30;2.90;;;2.70;;
20865;SDS011;10593;48.398;10.698;2023-04-30T09:23:59;2.80;;;2.60;;
20865;SDS011;10593;48.398;10.698;2023-04-30T09:26:31;3.17;;;2.97;;
20865;SDS011;10593;48.398;10.698;2023-04-30T09:28:59;2.90;;;2.70;;
20865;SDS011;10593;48.398;10.698;2023-04-30T09:31:31;2.60;;;2.50;;
20865;SDS011;10593;48.398;10.698;2023-04-30T09:34:04;2.77;;;2.60;;
20865;SDS011;10593;48.398;10.698;2023-04-30T09:36:30;3.00;;;2.80;;
20865;SDS011;10593;48.398;10.698;2023-04-30T09:39:10;2.57;;;2.47;;
20865;SDS011;10593;48.398;10.698;2023-04-30T09:41:38;2.73;;;2.53;;
20865;SDS011;10593;48.398;10.698;2023-04-30T09:44:03;2.53;;;2.43;;
20865;SDS011;10593;48.398;10.698;2023-04-30T09:46:33;2.33;;;2.23;;
20865;SDS011;10593;48.398;10.698;2023-04-30T09:49:03;2.30;;;2.20;;
20865;SDS011;10593;48.398;10.698;2023-04-30T09:51:30;2.40;;;2.30;;
20865;SDS011;10593;48.398;10.698;2023-04-30T09:53:56;3.13;;;2.93;;
20865;SDS011;10593;48.398;10.698;2023-04-30T09:56:23;3.20;;;2.90;;
20865;SDS011;10593;48.398;10.698;2023-04-30T09:58:51;6.37;;;2.80;;
20865;SDS011;10593;48.398;10.698;2023-04-30T10:01:20;3.03;;;2.83;;
20865;SDS011;10593;48.398;10.698;2023-04-30T10:03:50;2.90;;;2.60;;
20865;SDS011;10593;48.398;10.698;2023-04-30T10:06:16;3.10;;;2.90;;
20865;SDS011;10593;48.398;10.698;2023-04-30T10:08:47;2.67;;;2.47;;
20865;SDS011;10593;48.398;10.698;2023-04-30T10:11:18;2.57;;;2.47;;
20865;SDS011;10593;48.398;10.698;2023-04-30T10:13:51;3.03;;;2.60;;
20865;SDS011;10593;48.398;10.698;2023-04-30T10:16:33;3.27;;;2.97;;
20865;SDS011;10593;48.398;10.698;2023-04-30T10:19:13;2.80;;;2.60;;
20865;SDS011;10593;48.398;10.698;2023-04-30T10:21:44;2.43;;;2.33;;
20865;SDS011;10593;48.398;10.698;2023-04-30T10:24:12;2.20;;;2.10;;
20865;SDS011;10593;48.398;10.698;2023-04-30T10:26:39;2.50;;;2.33;;
20865;SDS011;10593;48.398;10.698;2023-04-30T10:29:06;2.47;;;2.30;;
20865;SDS011;10593;48.398;10.698;2023-04-30T10:31:33;2.50;;;2.40;;
20865;SDS011;10593;48.398;10.698;2023-04-30T10:36:38;2.30;;;2.20;;
20865;SDS011;10593;48.398;10.698;2023-04-30T10:39:09;2.77;;;2.57;;
20865;SDS011;10593;48.398;10.698;2023-04-30T10:41:37;2.10;;;2.00;;
20865;SDS011;10593;48.398;10.698;2023-04-30T10:44:03;2.40;;;2.30;;
20865;SDS011;10593;48.398;10.698;2023-04-30T10:46:33;2.47;;;2.30;;
20865;SDS011;10593;48.398;10.698;2023-04-30T10:49:00;2.60;;;2.40;;
20865;SDS011;10593;48.398;10.698;2023-04-30T10:51:43;2.30;;;2.10;;
20865;SDS011;10593;48.398;10.698;2023-04-30T10:54:12;2.03;;;1.93;;
20865;SDS011;10593;48.398;10.698;2023-04-30T10:56:42;2.30;;;2.10;;
20865;SDS011;10593;48.398;10.698;2023-04-30T10:59:10;2.03;;;1.93;;
20865;SDS011;10593;48.398;10.698;2023-04-30T11:04:22;1.87;;;1.77;;
20865;SDS011;10593;48.398;10.698;2023-04-30T11:09:39;2.00;;;1.90;;
20865;SDS011;10593;48.398;10.698;2023-04-30T11:12:13;2.30;;;2.10;;
20865;SDS011;10593;48.398;10.698;2023-04-30T11:14:44;1.97;;;1.87;;
20865;SDS011;10593;48.398;10.698;2023-04-30T11:17:11;2.87;;;2.57;;
20865;SDS011;10593;48.398;10.698;2023-04-30T11:19:47;4.57;;;3.97;;
20865;SDS011;10593;48.398;10.698;2023-04-30T11:22:15;3.83;;;3.60;;
20865;SDS011;10593;48.398;10.698;2023-04-30T11:24:53;2.70;;;2.60;;
20865;SDS011;10593;48.398;10.698;2023-04-30T11:27:42;2.30;;;2.20;;
20865;SDS011;10593;48.398;10.698;2023-04-30T11:30:13;2.07;;;1.97;;
20865;SDS011;10593;48.398;10.698;2023-04-30T11:32:43;2.23;;;2.13;;
20865;SDS011;10593;48.398;10.698;2023-04-30T11:35:11;3.17;;;2.93;;
20865;SDS011;10593;48.398;10.698;2023-04-30T11:37:41;2.90;;;2.70;;
20865;SDS011;10593;48.398;10.698;2023-04-30T11:40:09;2.50;;;2.40;;
20865;SDS011;10593;48.398;10.698;2023-04-30T11:42:37;2.10;;;2.00;;
20865;SDS011;10593;48.398;10.698;2023-04-30T11:50:16;2.30;;;2.20;;
20865;SDS011;10593;48.398;10.698;2023-04-30T11:52:49;2.43;;;2.10;;
20865;SDS011;10593;48.398;10.698;2023-04-30T11:55:17;2.30;;;2.10;;
20865;SDS011;10593;48.398;10.698;2023-04-30T11:57:48;3.20;;;2.90;;
20865;SDS011;10593;48.398;10.698;2023-04-30T12:00:27;2.83;;;2.70;;
20865;SDS011;10593;48.398;10.698;2023-04-30T12:02:55;2.50;;;2.30;;
20865;SDS011;10593;48.398;10.698;2023-04-30T12:05:24;2.23;;;2.13;;
20865;SDS011;10593;48.398;10.698;2023-04-30T12:08:03;2.23;;;2.03;;
20865;SDS011;10593;48.398;10.698;2023-04-30T12:10:33;2.10;;;1.90;;
20865;SDS011;10593;48.398;10.698;2023-04-30T12:13:02;2.10;;;2.00;;
20865;SDS011;10593;48.398;10.698;2023-04-30T12:15:28;2.00;;;1.90;;
20865;SDS011;10593;48.398;10.698;2023-04-30T12:17:54;2.20;;;2.10;;
20865;SDS011;10593;48.398;10.698;2023-04-30T12:20:24;2.13;;;2.03;;
20865;SDS011;10593;48.398;10.698;2023-04-30T12:22:55;2.20;;;2.10;;
20865;SDS011;10593;48.398;10.698;2023-04-30T12:25:22;2.20;;;2.10;;
20865;SDS011;10593;48.398;10.698;2023-04-30T12:27:49;2.20;;;2.00;;
20865;SDS011;10593;48.398;10.698;2023-04-30T12:30:20;3.33;;;2.00;;
20865;SDS011;10593;48.398;10.698;2023-04-30T12:32:49;2.27;;;2.10;;
20865;SDS011;10593;48.398;10.698;2023-04-30T12:35:19;1.80;;;1.70;;
20865;SDS011;10593;48.398;10.698;2023-04-30T12:37:48;2.07;;;1.83;;
20865;SDS011;10593;48.398;10.698;2023-04-30T12:40:16;1.90;;;1.63;;
20865;SDS011;10593;48.398;10.698;2023-04-30T12:42:50;1.80;;;1.70;;
20865;SDS011;10593;48.398;10.698;2023-04-30T12:48:18;2.27;;;2.17;;
20865;SDS011;10593;48.398;10.698;2023-04-30T12:50:52;2.20;;;2.10;;
20865;SDS011;10593;48.398;10.698;2023-04-30T12:53:26;2.37;;;2.10;;
20865;SDS011;10593;48.398;10.698;2023-04-30T12:58:44;2.57;;;1.90;;
20865;SDS011;10593;48.398;10.698;2023-04-30T13:01:15;2.10;;;2.00;;
20865;SDS011;10593;48.398;10.698;2023-04-30T13:03:43;2.20;;;2.10;;
20865;SDS011;10593;48.398;10.698;2023-04-30T13:06:09;2.40;;;1.77;;
20865;SDS011;10593;48.398;10.698;2023-04-30T13:08:34;2.10;;;2.00;;
20865;SDS011;10593;48.398;10.698;2023-04-30T13:11:00;2.03;;;1.93;;
20865;SDS011;10593;48.398;10.698;2023-04-30T13:13:26;1.90;;;1.80;;
20865;SDS011;10593;48.398;10.698;2023-04-30T13:15:52;1.73;;;1.63;;
20865;SDS011;10593;48.398;10.698;2023-04-30T13:18:17;2.10;;;2.00;;
20865;SDS011;10593;48.398;10.698;2023-04-30T13:20:43;1.90;;;1.80;;
20865;SDS011;10593;48.398;10.698;2023-04-30T13:23:09;1.90;;;1.80;;
20865;SDS011;10593;48.398;10.698;2023-04-30T13:25:38;2.10;;;2.00;;
20865;SDS011;10593;48.398;10.698;2023-04-30T13:28:05;2.00;;;1.90;;
20865;SDS011;10593;48.398;10.698;2023-04-30T13:30:31;1.90;;;1.80;;
20865;SDS011;10593;48.398;10.698;2023-04-30T13:32:58;4.03;;;2.30;;
20865;SDS011;10593;48.398;10.698;2023-04-30T13:35:24;2.50;;;2.07;;
20865;SDS011;10593;48.398;10.698;2023-04-30T13:37:53;3.20;;;2.50;;
20865;SDS011;10593;48.398;10.698;2023-04-30T13:40:19;9.93;;;7.73;;
20865;SDS011;10593;48.398;10.698;2023-04-30T13:42:45;14.57;;;11.53;;
20865;SDS011;10593;48.398;10.698;2023-04-30T13:45:13;8.13;;;7.33;;
20865;SDS011;10593;48.398;10.698;2023-04-30T13:47:39;4.47;;;4.07;;
20865;SDS011;10593;48.398;10.698;2023-04-30T13:50:05;2.57;;;2.37;;
20865;SDS011;10593;48.398;10.698;2023-04-30T13:52:32;2.10;;;2.00;;
20865;SDS011;10593;48.398;10.698;2023-04-30T13:54:58;2.30;;;1.77;;
20865;SDS011;10593;48.398;10.698;2023-04-30T13:57:24;2.60;;;2.10;;
20865;SDS011;10593;48.398;10.698;2023-04-30T13:59:50;2.10;;;1.90;;
20865;SDS011;10593;48.398;10.698;2023-04-30T14:02:16;2.20;;;2.00;;
20865;SDS011;10593;48.398;10.698;2023-04-30T14:04:42;2.07;;;1.97;;
20865;SDS011;10593;48.398;10.698;2023-04-30T14:07:08;2.10;;;2.00;;
20865;SDS011;10593;48.398;10.698;2023-04-30T14:09:33;1.97;;;1.87;;
20865;SDS011;10593;48.398;10.698;2023-04-30T14:12:00;1.83;;;1.73;;
20865;SDS011;10593;48.398;10.698;2023-04-30T14:14:26;2.17;;;1.97;;
20865;SDS011;10593;48.398;10.698;2023-04-30T14:16:52;1.90;;;1.80;;
20865;SDS011;10593;48.398;10.698;2023-04-30T14:19:19;1.80;;;1.70;;
20865;SDS011;10593;48.398;10.698;2023-04-30T14:21:46;2.10;;;1.90;;
20865;SDS011;10593;48.398;10.698;2023-04-30T14:24:11;2.40;;;2.20;;
20865;SDS011;10593;48.398;10.698;2023-04-30T14:26:37;1.97;;;1.87;;
20865;SDS011;10593;48.398;10.698;2023-04-30T14:29:05;2.07;;;1.60;;
20865;SDS011;10593;48.398;10.698;2023-04-30T14:31:31;1.90;;;1.80;;
20865;SDS011;10593;48.398;10.698;2023-04-30T14:33:57;2.13;;;2.03;;
20865;SDS011;10593;48.398;10.698;2023-04-30T14:36:23;2.60;;;1.80;;
20865;SDS011;10593;48.398;10.698;2023-04-30T14:38:48;2.10;;;1.90;;
20865;SDS011;10593;48.398;10.698;2023-04-30T14:41:14;2.00;;;1.90;;
20865;SDS011;10593;48.398;10.698;2023-04-30T14:43:40;1.57;;;1.47;;
20865;SDS011;10593;48.398;10.698;2023-04-30T14:46:06;1.70;;;1.60;;
20865;SDS011;10593;48.398;10.698;2023-04-30T14:48:32;2.00;;;1.80;;
20865;SDS011;10593;48.398;10.698;2023-04-30T14:50:57;1.83;;;1.73;;
20865;SDS011;10593;48.398;10.698;2023-04-30T14:53:25;4.93;;;4.53;;
20865;SDS011;10593;48.398;10.698;2023-04-30T14:55:51;2.43;;;2.30;;
20865;SDS011;10593;48.398;10.698;2023-04-30T14:58:16;2.00;;;1.90;;
20865;SDS011;10593;48.398;10.698;2023-04-30T15:00:43;2.00;;;1.90;;
20865;SDS011;10593;48.398;10.698;2023-04-30T15:03:09;1.87;;;1.70;;
20865;SDS011;10593;48.398;10.698;2023-04-30T15:05:34;1.77;;;1.67;;
20865;SDS011;10593;48.398;10.698;2023-04-30T15:08:00;1.70;;;1.60;;
20865;SDS011;10593;48.398;10.698;2023-04-30T15:10:26;1.80;;;1.70;;
20865;SDS011;10593;48.398;10.698;2023-04-30T15:12:51;1.90;;;1.70;;
20865;SDS011;10593;48.398;10.698;2023-04-30T15:15:17;1.90;;;1.80;;
20865;SDS011;10593;48.398;10.698;2023-04-30T15:17:45;1.70;;;1.60;;